createdAt,value
2017-05-09T00:02:12.058Z,90.10
2017-05-09T00:04:41.130Z,90.30
2017-05-09T00:07:10.234Z,90.10
2017-05-09T00:09:39.342Z,90.30
2017-05-09T00:12:08.417Z,90.20
2017-05-09T00:14:37.514Z,90.00
2017-05-09T00:17:06.606Z,90.00
2017-05-09T00:19:35.726Z,90.00
2017-05-09T00:22:04.790Z,90.00
2017-05-09T00:24:33.870Z,90.10
2017-05-09T00:27:02.961Z,90.10
2017-05-09T00:29:32.032Z,90.20
2017-05-09T00:32:01.137Z,90.30
2017-05-09T00:34:30.366Z,90.40
2017-05-09T00:36:59.483Z,90.30
2017-05-09T00:39:28.575Z,90.40
2017-05-09T00:41:57.656Z,90.50
2017-05-09T00:44:26.762Z,90.60
2017-05-09T00:46:55.082Z,90.60
2017-05-09T00:49:24.184Z,90.30
2017-05-09T00:51:53.244Z,90.40
2017-05-09T00:54:22.372Z,90.20
2017-05-09T00:56:51.458Z,90.50
2017-05-09T00:59:20.539Z,90.30
2017-05-09T01:01:49.633Z,90.30
2017-05-09T01:04:18.841Z,90.30
2017-05-09T01:06:47.973Z,90.50
2017-05-09T01:09:17.052Z,90.40
2017-05-09T01:11:46.149Z,90.60
2017-05-09T01:14:15.238Z,90.50
2017-05-09T01:16:44.345Z,90.70
2017-05-09T01:19:13.545Z,90.60
2017-05-09T01:21:42.636Z,90.40
2017-05-09T01:24:11.711Z,90.40
2017-05-09T01:26:40.809Z,90.50
2017-05-09T01:29:09.912Z,90.60
2017-05-09T01:31:38.994Z,90.50
2017-05-09T01:34:08.102Z,90.80
2017-05-09T01:36:37.177Z,90.60
2017-05-09T01:39:06.300Z,90.70
2017-05-09T01:41:35.413Z,90.60
2017-05-09T01:44:04.490Z,90.60
2017-05-09T01:46:33.606Z,90.50
2017-05-09T01:49:02.687Z,90.60
2017-05-09T01:51:31.795Z,90.70
2017-05-09T01:54:00.876Z,91.10
2017-05-09T01:56:29.997Z,91.00
2017-05-09T01:58:59.082Z,90.90
2017-05-09T02:01:28.176Z,90.60
2017-05-09T02:04:01.878Z,90.60
2017-05-09T02:06:30.959Z,90.80
2017-05-09T02:09:00.042Z,90.90
2017-05-09T02:11:29.143Z,90.50
2017-05-09T02:13:58.223Z,90.80
2017-05-09T02:16:27.315Z,90.80
2017-05-09T02:18:56.409Z,90.80
2017-05-09T02:21:25.477Z,90.70
2017-05-09T02:23:54.590Z,90.70
2017-05-09T02:26:23.661Z,90.70
2017-05-09T02:28:52.753Z,90.80
2017-05-09T02:31:21.853Z,90.70
2017-05-09T02:33:50.915Z,91.00
2017-05-09T02:36:20.011Z,91.00
2017-05-09T02:38:49.125Z,90.90
2017-05-09T02:41:18.408Z,90.80
2017-05-09T02:43:47.486Z,90.70
2017-05-09T02:46:16.581Z,90.90
2017-05-09T02:48:45.674Z,91.00
2017-05-09T02:51:14.746Z,90.80
2017-05-09T02:53:43.838Z,91.10
2017-05-09T02:56:12.942Z,91.10
2017-05-09T02:58:42.029Z,90.90
2017-05-09T03:01:11.112Z,90.90
2017-05-09T03:03:40.223Z,91.20
2017-05-09T03:06:09.303Z,91.30
2017-05-09T03:08:38.397Z,91.50
2017-05-09T03:11:07.547Z,91.10
2017-05-09T03:13:35.841Z,91.00
2017-05-09T03:16:04.954Z,91.60
2017-05-09T03:18:34.037Z,91.10
2017-05-09T03:21:03.130Z,91.10
2017-05-09T03:23:32.229Z,91.40
2017-05-09T03:26:01.394Z,91.40
2017-05-09T03:28:30.757Z,91.50
2017-05-09T03:30:59.821Z,91.30
2017-05-09T03:33:28.887Z,91.40
2017-05-09T03:35:57.982Z,91.30
2017-05-09T03:38:27.339Z,91.30
2017-05-09T03:40:56.401Z,91.30
2017-05-09T03:43:26.240Z,91.30
2017-05-09T03:45:55.337Z,91.10
2017-05-09T03:48:24.415Z,91.40
2017-05-09T03:50:53.525Z,91.30
2017-05-09T03:53:22.591Z,91.60
2017-05-09T03:55:51.702Z,91.60
2017-05-09T03:58:20.774Z,91.80
2017-05-09T04:00:49.868Z,91.80
2017-05-09T04:03:18.961Z,91.80
2017-05-09T04:05:48.078Z,91.80
2017-05-09T04:08:16.866Z,91.80
2017-05-09T04:10:45.945Z,91.80
2017-05-09T04:13:15.001Z,91.60
2017-05-09T04:15:44.125Z,91.50
2017-05-09T04:18:13.223Z,91.60
2017-05-09T04:20:42.334Z,91.90
2017-05-09T04:23:11.455Z,91.90
2017-05-09T04:25:40.550Z,91.80
2017-05-09T04:28:09.634Z,91.70
2017-05-09T04:30:38.726Z,91.60
2017-05-09T04:33:07.831Z,91.90
2017-05-09T04:35:36.934Z,91.80
2017-05-09T04:38:06.130Z,91.80
2017-05-09T04:40:35.231Z,91.50
2017-05-09T04:43:04.432Z,91.60
2017-05-09T04:45:33.540Z,91.70
2017-05-09T04:48:02.645Z,91.70
2017-05-09T04:50:31.752Z,91.70
2017-05-09T04:53:00.866Z,91.90
2017-05-09T04:55:30.006Z,92.00
2017-05-09T04:57:59.110Z,91.90
2017-05-09T05:00:28.230Z,91.60
2017-05-09T05:02:57.388Z,91.30
2017-05-09T05:05:26.633Z,91.40
2017-05-09T05:07:55.771Z,91.20
2017-05-09T05:10:25.143Z,91.40
2017-05-09T05:12:54.253Z,91.70
2017-05-09T05:15:23.326Z,91.90
2017-05-09T05:17:52.602Z,92.10
2017-05-09T05:20:21.684Z,92.10
2017-05-09T05:22:50.829Z,91.70
2017-05-09T05:25:19.900Z,91.30
2017-05-09T05:27:48.996Z,91.30
2017-05-09T05:30:18.067Z,91.00
2017-05-09T05:32:47.439Z,91.40
2017-05-09T05:35:17.332Z,89.90
2017-05-09T05:37:46.458Z,90.10
2017-05-09T05:40:15.567Z,90.10
2017-05-09T05:42:44.686Z,90.60
2017-05-09T05:45:13.769Z,90.70
2017-05-09T05:47:42.901Z,90.80
2017-05-09T05:50:11.258Z,90.80
2017-05-09T05:52:40.423Z,90.10
2017-05-09T05:55:09.585Z,90.50
2017-05-09T05:57:38.671Z,90.00
2017-05-09T06:00:07.810Z,75.30
2017-05-09T06:02:37.018Z,75.60
2017-05-09T06:05:07.532Z,72.30
2017-05-09T06:07:37.362Z,74.40
2017-05-09T06:10:05.842Z,74.30
2017-05-09T06:12:35.174Z,68.40
2017-05-09T06:15:04.345Z,65.30
2017-05-09T06:17:34.326Z,65.30
2017-05-09T06:20:03.973Z,65.20
2017-05-09T06:22:34.039Z,57.90
2017-05-09T06:25:03.276Z,55.20
2017-05-09T06:27:32.406Z,54.80
2017-05-09T06:30:01.519Z,56.70
2017-05-09T06:32:30.676Z,56.20
2017-05-09T06:35:00.642Z,57.30
2017-05-09T06:37:29.788Z,57.30
2017-05-09T06:39:59.983Z,58.00
2017-05-09T06:42:29.205Z,55.80
2017-05-09T06:44:58.388Z,56.70
2017-05-09T06:47:27.522Z,53.20
2017-05-09T06:49:57.894Z,53.80
2017-05-09T06:52:27.248Z,52.00
2017-05-09T06:54:56.544Z,53.80
2017-05-09T06:57:25.713Z,56.90
2017-05-09T06:59:54.939Z,53.40
2017-05-09T07:02:24.086Z,54.80
2017-05-09T07:04:53.165Z,53.10
2017-05-09T07:07:23.369Z,52.80
2017-05-09T07:09:52.524Z,55.70
2017-05-09T07:12:22.405Z,55.50
2017-05-09T07:14:51.597Z,55.60
2017-05-09T07:17:19.914Z,55.70
2017-05-09T07:19:49.273Z,51.60
2017-05-09T07:22:18.391Z,51.60
2017-05-09T07:24:48.170Z,52.30
2017-05-09T07:27:17.303Z,51.00
2017-05-09T07:29:46.459Z,49.70
2017-05-09T07:32:15.542Z,49.90
2017-05-09T07:34:44.736Z,51.20
2017-05-09T07:37:13.847Z,50.40
2017-05-09T07:39:42.897Z,51.60
2017-05-09T07:42:13.283Z,50.30
2017-05-09T07:44:42.519Z,53.10
2017-05-09T07:47:11.697Z,52.00
2017-05-09T07:49:40.804Z,51.00
2017-05-09T07:52:10.814Z,52.20
2017-05-09T07:54:39.927Z,51.00
2017-05-09T07:57:09.075Z,51.50
2017-05-09T07:59:38.187Z,53.70
2017-05-09T08:02:07.345Z,51.70
2017-05-09T08:04:36.497Z,51.40
2017-05-09T08:07:05.597Z,50.40
2017-05-09T08:09:34.830Z,49.70
2017-05-09T08:12:04.548Z,51.00
2017-05-09T08:14:33.722Z,51.70
2017-05-09T08:17:02.895Z,50.70
2017-05-09T08:19:32.241Z,49.70
2017-05-09T08:22:02.294Z,51.00
2017-05-09T08:24:32.258Z,48.90
2017-05-09T08:27:03.227Z,47.50
2017-05-09T08:29:32.417Z,50.20
2017-05-09T08:32:01.742Z,49.10
2017-05-09T08:34:30.952Z,47.80
2017-05-09T08:37:00.126Z,48.30
2017-05-09T08:39:29.298Z,47.10
2017-05-09T08:41:58.431Z,47.00
2017-05-09T08:44:27.833Z,43.60
2017-05-09T08:46:57.912Z,43.10
2017-05-09T08:49:27.170Z,48.60
2017-05-09T08:51:56.914Z,45.30
2017-05-09T08:54:26.159Z,44.30
2017-05-09T08:56:55.289Z,44.50
2017-05-09T08:59:24.433Z,48.20
2017-05-09T09:01:53.612Z,46.60
2017-05-09T09:04:23.609Z,45.90
2017-05-09T09:06:53.081Z,45.20
2017-05-09T09:09:22.294Z,45.70
2017-05-09T09:11:51.443Z,44.60
2017-05-09T09:14:20.601Z,43.60
2017-05-09T09:16:49.730Z,43.90
2017-05-09T09:19:18.910Z,43.30
2017-05-09T09:21:48.858Z,43.30
2017-05-09T09:24:17.994Z,41.20
2017-05-09T09:26:47.207Z,42.10
2017-05-09T09:29:16.318Z,44.00
2017-05-09T09:31:44.943Z,43.80
2017-05-09T09:34:14.065Z,41.80
2017-05-09T09:36:43.273Z,42.90
2017-05-09T09:39:12.551Z,44.00
2017-05-09T09:41:41.731Z,42.80
2017-05-09T09:44:10.858Z,40.20
2017-05-09T09:46:40.011Z,41.20
2017-05-09T09:49:09.446Z,42.30
2017-05-09T09:51:38.683Z,43.80
2017-05-09T09:54:07.861Z,42.70
2017-05-09T09:56:36.997Z,43.20
2017-05-09T09:59:06.126Z,43.20
2017-05-09T10:01:35.230Z,40.60
2017-05-09T10:04:05.123Z,40.20
2017-05-09T10:06:35.649Z,39.00
2017-05-09T10:09:04.935Z,41.20
2017-05-09T10:11:34.954Z,41.20
2017-05-09T10:14:04.075Z,42.80
2017-05-09T10:16:33.307Z,44.10
2017-05-09T10:19:02.422Z,45.10
2017-05-09T10:21:32.082Z,42.70
2017-05-09T10:24:01.307Z,43.20
2017-05-09T10:26:32.565Z,42.50
2017-05-09T10:29:01.759Z,40.80
2017-05-09T10:31:30.935Z,39.80
2017-05-09T10:34:00.114Z,41.90
2017-05-09T10:36:30.244Z,42.70
2017-05-09T10:39:00.357Z,43.60
2017-05-09T10:41:30.050Z,43.20
2017-05-09T10:43:59.480Z,44.00
2017-05-09T10:46:28.642Z,44.10
2017-05-09T10:48:57.774Z,43.40
2017-05-09T10:51:26.927Z,44.70
2017-05-09T10:53:56.038Z,45.40
2017-05-09T10:56:25.362Z,45.60
2017-05-09T10:58:53.774Z,45.60
2017-05-09T11:01:23.202Z,44.00
2017-05-09T11:03:52.361Z,43.50
2017-05-09T11:06:21.528Z,44.40
2017-05-09T11:08:50.869Z,42.40
2017-05-09T11:11:20.051Z,37.50
2017-05-09T11:13:49.199Z,38.80
2017-05-09T11:16:18.334Z,37.90
2017-05-09T11:18:47.742Z,37.50
2017-05-09T11:21:17.836Z,40.10
2017-05-09T11:23:47.037Z,39.40
2017-05-09T11:26:16.918Z,42.40
2017-05-09T11:28:46.107Z,42.40
2017-05-09T11:31:15.417Z,41.00
2017-05-09T11:33:43.875Z,41.00
2017-05-09T11:36:13.015Z,45.30
2017-05-09T11:38:42.115Z,45.00
2017-05-09T11:41:11.562Z,43.60
2017-05-09T11:43:40.721Z,43.40
2017-05-09T11:46:09.910Z,41.60
2017-05-09T11:48:39.712Z,42.30
2017-05-09T11:51:08.838Z,41.80
2017-05-09T11:53:38.043Z,42.20
2017-05-09T11:56:07.259Z,42.20
2017-05-09T11:58:36.432Z,41.30
2017-05-09T12:01:05.627Z,41.20
2017-05-09T12:03:35.703Z,43.30
2017-05-09T12:06:04.898Z,41.80
2017-05-09T12:08:34.141Z,42.50
2017-05-09T12:11:03.298Z,40.90
2017-05-09T12:13:32.709Z,39.60
2017-05-09T12:16:01.862Z,41.10
2017-05-09T12:18:31.030Z,42.60
2017-05-09T12:21:00.157Z,43.60
2017-05-09T12:23:29.248Z,46.60
2017-05-09T12:25:58.318Z,47.40
2017-05-09T12:28:27.475Z,47.70
2017-05-09T12:30:56.631Z,45.70
2017-05-09T12:33:25.718Z,47.00
2017-05-09T12:35:54.985Z,47.40
2017-05-09T12:38:24.148Z,45.70
2017-05-09T12:40:53.243Z,47.70
2017-05-09T12:43:22.337Z,46.10
2017-05-09T12:45:51.426Z,46.30
2017-05-09T12:48:20.545Z,46.20
2017-05-09T12:50:49.618Z,48.30
2017-05-09T12:53:18.721Z,45.50
2017-05-09T12:55:47.095Z,45.50
2017-05-09T12:58:16.205Z,46.70
2017-05-09T13:00:45.341Z,45.40
2017-05-09T13:03:14.463Z,46.20
2017-05-09T13:05:43.533Z,45.30
2017-05-09T13:08:12.653Z,46.30
2017-05-09T13:10:41.870Z,46.90
2017-05-09T13:13:10.957Z,47.80
2017-05-09T13:15:40.042Z,45.80
2017-05-09T13:18:09.211Z,45.80
2017-05-09T13:20:38.309Z,44.80
2017-05-09T13:23:07.400Z,45.70
2017-05-09T13:25:36.473Z,44.80
2017-05-09T13:28:05.582Z,44.80
2017-05-09T13:30:34.690Z,46.10
2017-05-09T13:33:03.774Z,46.10
2017-05-09T13:35:32.872Z,44.50
2017-05-09T13:38:01.986Z,44.30
2017-05-09T13:40:31.087Z,41.80
2017-05-09T13:42:59.409Z,41.80
2017-05-09T13:45:28.529Z,41.40
2017-05-09T13:47:57.605Z,42.90
2017-05-09T13:50:26.729Z,43.50
2017-05-09T13:52:55.852Z,44.30
2017-05-09T13:55:24.978Z,45.20
2017-05-09T13:57:54.065Z,43.90
2017-05-09T14:00:23.149Z,45.80
2017-05-09T14:02:52.262Z,46.50
2017-05-09T14:05:21.362Z,47.10
2017-05-09T14:07:50.463Z,47.50
2017-05-09T14:10:19.552Z,47.50
2017-05-09T14:12:48.663Z,45.50
2017-05-09T14:15:17.741Z,46.10
2017-05-09T14:17:46.882Z,49.00
2017-05-09T14:20:16.347Z,50.80
2017-05-09T14:22:45.433Z,51.60
2017-05-09T14:25:14.515Z,51.60
2017-05-09T14:27:43.623Z,51.80
2017-05-09T14:30:12.715Z,53.50
2017-05-09T14:32:41.813Z,52.60
2017-05-09T14:35:10.976Z,48.70
2017-05-09T14:37:40.055Z,48.90
2017-05-09T14:40:09.216Z,44.90
2017-05-09T14:42:38.333Z,44.20
2017-05-09T14:45:07.433Z,41.80
2017-05-09T14:47:36.528Z,45.50
2017-05-09T14:50:05.686Z,46.20
2017-05-09T14:52:34.822Z,48.30
2017-05-09T14:55:03.958Z,46.70
2017-05-09T14:57:33.065Z,47.50
2017-05-09T15:00:03.892Z,47.40
2017-05-09T15:02:33.280Z,48.50
2017-05-09T15:05:02.401Z,49.00
2017-05-09T15:07:32.319Z,47.50
2017-05-09T15:10:01.451Z,43.10
2017-05-09T15:12:30.643Z,43.70
2017-05-09T15:14:59.777Z,47.60
2017-05-09T15:17:30.254Z,47.80
2017-05-09T15:19:59.579Z,47.00
2017-05-09T15:22:28.689Z,47.80
2017-05-09T15:24:57.822Z,47.50
2017-05-09T15:27:28.757Z,47.80
2017-05-09T15:29:57.982Z,48.30
2017-05-09T15:32:27.790Z,47.30
2017-05-09T15:34:57.108Z,48.60
2017-05-09T15:37:26.240Z,48.70
2017-05-09T15:39:55.364Z,48.40
2017-05-09T15:42:24.573Z,48.80
2017-05-09T15:45:13.646Z,48.90
2017-05-09T15:47:42.888Z,50.30
2017-05-09T15:50:13.092Z,50.70
2017-05-09T15:52:42.302Z,50.60
2017-05-09T15:55:11.461Z,50.00
2017-05-09T15:57:40.749Z,50.60
2017-05-09T16:00:09.960Z,48.60
2017-05-09T16:02:39.973Z,49.50
2017-05-09T16:05:09.077Z,49.80
2017-05-09T16:07:38.187Z,50.50
2017-05-09T16:10:07.349Z,51.90
2017-05-09T16:12:36.572Z,52.00
2017-05-09T16:15:05.826Z,52.90
2017-05-09T16:17:35.778Z,52.00
2017-05-09T16:20:04.989Z,51.80
2017-05-09T16:22:34.578Z,52.80
2017-05-09T16:25:03.688Z,50.80
2017-05-09T16:27:33.102Z,50.00
2017-05-09T16:30:02.258Z,51.30
2017-05-09T16:32:31.510Z,52.10
2017-05-09T16:35:00.691Z,51.30
2017-05-09T16:37:29.874Z,51.20
2017-05-09T16:39:59.403Z,49.30
2017-05-09T16:42:28.508Z,48.30
2017-05-09T16:44:57.654Z,46.90
2017-05-09T16:47:27.719Z,46.30
2017-05-09T16:49:56.882Z,49.80
2017-05-09T16:52:25.970Z,49.00
2017-05-09T16:54:55.062Z,48.70
2017-05-09T16:57:24.165Z,48.50
2017-05-09T16:59:53.250Z,48.10
2017-05-09T17:02:22.387Z,48.90
2017-05-09T17:04:51.461Z,49.80
2017-05-09T17:07:20.546Z,48.80
2017-05-09T17:09:49.670Z,46.50
2017-05-09T17:12:18.733Z,45.70
2017-05-09T17:14:47.817Z,46.80
2017-05-09T17:17:16.925Z,46.80
2017-05-09T17:19:46.025Z,49.00
2017-05-09T17:22:15.142Z,51.20
2017-05-09T17:24:44.202Z,53.20
2017-05-09T17:27:13.334Z,53.60
2017-05-09T17:29:42.418Z,53.40
2017-05-09T17:32:11.494Z,54.00
2017-05-09T17:34:40.747Z,54.80
2017-05-09T17:37:09.849Z,56.00
2017-05-09T17:39:38.942Z,55.30
2017-05-09T17:42:08.053Z,55.10
2017-05-09T17:44:37.098Z,54.10
2017-05-09T17:47:06.218Z,52.20
2017-05-09T17:49:35.338Z,49.60
2017-05-09T17:52:04.531Z,48.70
2017-05-09T17:54:33.614Z,47.50
2017-05-09T17:57:02.797Z,47.20
2017-05-09T17:59:31.908Z,49.00
2017-05-09T18:02:00.990Z,49.40
2017-05-09T18:04:30.320Z,48.70
2017-05-09T18:06:59.405Z,49.10
2017-05-09T18:09:28.481Z,50.20
2017-05-09T18:11:57.601Z,50.80
2017-05-09T18:14:26.730Z,51.90
2017-05-09T18:16:55.871Z,53.70
2017-05-09T18:19:24.953Z,54.40
2017-05-09T18:21:54.187Z,55.00
2017-05-09T18:24:23.283Z,56.20
2017-05-09T18:26:52.382Z,57.80
2017-05-09T18:29:21.509Z,57.60
2017-05-09T18:31:50.597Z,58.50
2017-05-09T18:34:19.046Z,58.40
2017-05-09T18:36:48.133Z,59.00
2017-05-09T18:39:17.254Z,60.00
2017-05-09T18:41:46.344Z,59.50
2017-05-09T18:44:15.435Z,60.60
2017-05-09T18:46:44.570Z,61.10
2017-05-09T18:49:13.653Z,62.60
2017-05-09T18:51:42.729Z,63.00
2017-05-09T18:54:11.862Z,63.90
2017-05-09T18:56:41.288Z,65.20
2017-05-09T18:59:10.392Z,65.80
2017-05-09T19:01:39.470Z,65.40
2017-05-09T19:04:08.617Z,66.30
2017-05-09T19:06:37.765Z,67.00
2017-05-09T19:09:07.615Z,67.70
2017-05-09T19:11:36.730Z,68.00
2017-05-09T19:14:05.909Z,68.50
2017-05-09T19:16:35.110Z,70.10
2017-05-09T19:19:05.116Z,69.40
2017-05-09T19:21:34.252Z,70.50
2017-05-09T19:24:03.386Z,71.40
2017-05-09T19:26:32.731Z,72.00
2017-05-09T19:29:01.832Z,72.10
2017-05-09T19:31:31.018Z,72.60
2017-05-09T19:33:59.401Z,72.60
2017-05-09T19:36:28.525Z,74.90
2017-05-09T19:38:57.654Z,74.20
2017-05-09T19:41:26.781Z,75.50
2017-05-09T19:43:55.898Z,75.80
2017-05-09T19:46:25.033Z,77.00
2017-05-09T19:48:54.126Z,77.50
2017-05-09T19:51:23.252Z,78.00
2017-05-09T19:53:52.391Z,77.30
2017-05-09T19:56:21.501Z,78.50
2017-05-09T19:58:50.608Z,78.90
2017-05-09T20:01:19.274Z,78.80
2017-05-09T20:03:48.404Z,79.30
2017-05-09T20:06:17.546Z,80.30
2017-05-09T20:08:46.682Z,81.30
2017-05-09T20:11:15.866Z,81.00
2017-05-09T20:13:46.055Z,80.60
2017-05-09T20:16:15.200Z,81.20
2017-05-09T20:18:44.356Z,81.40
2017-05-09T20:21:13.453Z,81.80
2017-05-09T20:23:42.531Z,81.60
2017-05-09T20:26:11.645Z,82.00
2017-05-09T20:28:40.728Z,80.10
2017-05-09T20:31:10.109Z,80.70
2017-05-09T20:33:39.197Z,80.20
2017-05-09T20:36:08.312Z,79.20
2017-05-09T20:38:37.443Z,79.00
2017-05-09T20:41:06.571Z,78.60
2017-05-09T20:43:35.692Z,81.10
2017-05-09T20:46:05.040Z,81.10
2017-05-09T20:48:34.187Z,79.80
2017-05-09T20:51:03.688Z,79.00
2017-05-09T20:53:33.293Z,81.30
2017-05-09T20:56:02.370Z,80.00
2017-05-09T20:58:31.470Z,78.30
2017-05-09T21:01:00.845Z,78.00
2017-05-09T21:03:29.972Z,79.70
2017-05-09T21:05:59.050Z,77.70
2017-05-09T21:08:28.182Z,78.40
2017-05-09T21:10:57.256Z,77.70
2017-05-09T21:13:26.408Z,76.70
2017-05-09T21:15:55.538Z,78.00
2017-05-09T21:18:24.693Z,78.30
2017-05-09T21:20:53.791Z,78.10
2017-05-09T21:23:23.273Z,78.10
2017-05-09T21:25:52.377Z,79.00
2017-05-09T21:28:21.502Z,77.80
2017-05-09T21:30:50.614Z,77.50
2017-05-09T21:33:19.694Z,77.80
2017-05-09T21:35:48.030Z,77.70
2017-05-09T21:38:17.170Z,76.90
2017-05-09T21:40:46.321Z,77.90
2017-05-09T21:43:15.506Z,78.40
2017-05-09T21:45:44.629Z,77.50
2017-05-09T21:48:13.717Z,77.30
2017-05-09T21:50:42.850Z,77.50
2017-05-09T21:53:11.951Z,78.20
2017-05-09T21:55:41.075Z,77.80
2017-05-09T21:58:10.176Z,78.40
2017-05-09T22:00:39.573Z,77.80
2017-05-09T22:03:08.739Z,78.10
2017-05-09T22:05:37.830Z,77.40
2017-05-09T22:08:06.948Z,77.20
2017-05-09T22:10:36.144Z,77.80
2017-05-09T22:13:05.249Z,77.60
2017-05-09T22:15:47.007Z,76.00
2017-05-09T22:18:16.118Z,77.10
2017-05-09T22:20:45.509Z,77.40
2017-05-09T22:23:14.589Z,76.70
2017-05-09T22:25:43.683Z,77.10
2017-05-09T22:28:12.784Z,77.90
2017-05-09T22:30:41.981Z,78.90
2017-05-09T22:33:11.069Z,77.60
2017-05-09T22:35:40.191Z,79.40
2017-05-09T22:38:09.270Z,78.70
2017-05-09T22:40:38.349Z,78.90
2017-05-09T22:43:06.708Z,78.80
2017-05-09T22:45:35.782Z,79.60
2017-05-09T22:48:04.906Z,78.90
2017-05-09T22:50:34.026Z,80.50
2017-05-09T22:53:03.108Z,80.20
2017-05-09T22:55:32.278Z,80.80
2017-05-09T22:58:01.418Z,81.30
2017-05-09T23:00:30.507Z,81.00
2017-05-09T23:02:59.604Z,80.50
2017-05-09T23:05:28.683Z,82.10
2017-05-09T23:07:57.792Z,81.10
2017-05-09T23:10:26.874Z,82.40
2017-05-09T23:12:56.008Z,81.50
2017-05-09T23:15:25.101Z,81.50
2017-05-09T23:17:54.224Z,81.20
2017-05-09T23:20:23.361Z,81.80
2017-05-09T23:22:51.809Z,81.70
2017-05-09T23:25:20.961Z,83.50
2017-05-09T23:27:50.199Z,83.00
2017-05-09T23:30:19.322Z,82.10
2017-05-09T23:32:48.465Z,83.10
2017-05-09T23:35:17.620Z,82.50
2017-05-09T23:37:46.000Z,82.40
2017-05-09T23:40:15.130Z,82.50
2017-05-09T23:42:44.259Z,84.00
2017-05-09T23:45:13.419Z,82.20
2017-05-09T23:47:42.523Z,82.20
2017-05-09T23:50:11.681Z,82.90
2017-05-09T23:52:40.792Z,83.20
2017-05-09T23:55:09.870Z,83.20
2017-05-09T23:57:38.978Z,81.70
